KHOP/HOP METAR and TAF weather

Enter ICAO airport designator
Station Type Date Time Source
KHOP METAR 2022/12/01 00:55 UTC NOAA

KHOP 010055Z AUTO 27005KT 10SM CLR 03/M09 A3038 RMK AO2 SLP295 T00281089


Station Type Date Time Source
KHOP Decoded METAR 2022/12/01 00:55 UTC NOAA

Fort Campbell U. S. Army Airfield, KY, United States (KHOP) 36-40N 087-30W 174M
Nov 30, 2022 - 07:55 PM EST / 2022.12.01 0055 UTC
Wind: from the W (270 degrees) at 6 MPH (5 KT):0
Visibility: 10 mile(s):0
Sky conditions: clear
Temperature: 37.0 F (2.8 C)
Dew Point: 16.0 F (-8.9 C)
Relative Humidity: 41%
Pressure (altimeter): 30.38 in. Hg (1028 hPa)
ob: KHOP 010055Z AUTO 27005KT 10SM CLR 03/M09 A3038 RMK AO2 SLP295 T00281089
cycle: 1

Station Type Date Time Source
KHOP TAF 2022/12/01 00:15 UTC NOAA

TAF KHOP 010005Z 0100/0206 VRB06KT 9999 SKC QNH3040INS
BECMG 0114/0115 08010G15KT 9999 FEW250 QNH3037INS TX05/0120Z TNM02/0111Z

Example: see airport list